Time;durP1;ratioP1;P1;durP2;ratioP2;P2;SDS_P1;SDS_P2;PMS_P1;PMS_P2;Temp;Humidity;BMP_temperature;BMP_pressure;BME280_temperature;BME280_humidity;BME280_pressure;Samples;Min_cycle;Max_cycle;Signal;HPM_P1;HPM_P2
2022/06/12 05:00:40;;;;;;;8.03;6.97;;;18.70;97.20;;;;;;1721360;28;20201;-69
2022/06/12 05:01:32;;;;;;;7.45;6.10;;;18.80;97.20;;;;;;1721199;28;20584;-69
2022/06/12 05:02:24;;;;;;;9.25;7.80;;;18.80;97.20;;;;;;1721180;28;20200;-70
2022/06/12 05:03:15;;;;;;;7.40;6.60;;;18.80;97.20;;;;;;1721205;28;20197;-69
2022/06/12 05:04:07;;;;;;;7.05;6.35;;;18.80;97.20;;;;;;1721182;28;20200;-70
2022/06/12 05:04:58;;;;;;;6.88;6.28;;;18.80;97.20;;;;;;1721250;28;20201;-70
2022/06/12 05:05:50;;;;;;;6.60;6.10;;;18.90;97.20;;;;;;1721111;28;20217;-70
2022/06/12 05:06:42;;;;;;;6.85;6.25;;;18.90;97.20;;;;;;1720880;28;20452;-70
2022/06/12 05:07:34;;;;;;;7.18;6.30;;;18.90;97.20;;;;;;1721273;28;20660;-69
2022/06/12 05:08:25;;;;;;;6.55;5.70;;;18.90;97.20;;;;;;1721051;28;20547;-70
2022/06/12 05:09:20;;;;;;;6.75;5.82;;;18.90;97.20;;;;;;1721156;28;20205;-70
2022/06/12 05:10:14;;;;;;;6.43;5.93;;;19.00;97.20;;;;;;1721265;28;20209;-70
2022/06/12 05:11:06;;;;;;;6.22;5.72;;;19.00;97.20;;;;;;1721103;28;20656;-70
2022/06/12 05:11:57;;;;;;;6.95;6.35;;;19.00;97.20;;;;;;1721163;28;20212;-70
2022/06/12 05:12:49;;;;;;;6.25;5.65;;;19.00;97.20;;;;;;1719339;28;20204;-69
2022/06/12 05:13:40;;;;;;;5.50;5.10;;;19.00;97.20;;;;;;1720982;28;20340;-69
2022/06/12 05:14:31;;;;;;;6.40;5.83;;;19.10;97.20;;;;;;1721250;28;20665;-69
2022/06/12 05:15:23;;;;;;;6.32;5.70;;;19.10;97.20;;;;;;1720971;28;20205;-70
2022/06/12 05:16:26;;;;;;;5.68;5.28;;;19.10;97.20;;;;;;1721137;28;20714;-70
2022/06/12 05:17:20;;;;;;;5.72;5.28;;;19.10;97.20;;;;;;1720927;28;20801;-69
2022/06/12 05:18:14;;;;;;;5.97;5.47;;;19.10;97.20;;;;;;1720993;28;20204;-69
2022/06/12 05:19:08;;;;;;;6.18;5.68;;;19.10;97.20;;;;;;1721171;28;20571;-69
2022/06/12 05:20:01;;;;;;;6.13;5.53;;;19.10;97.20;;;;;;1721139;28;20251;-70
2022/06/12 05:20:51;;;;;;;6.60;5.00;;;19.20;97.20;;;;;;1721053;28;20209;-69
2022/06/12 05:21:44;;;;;;;9.40;5.60;;;19.20;97.20;;;;;;1720986;28;20198;-69
2022/06/12 05:22:34;;;;;;;5.60;5.10;;;19.20;97.20;;;;;;1721156;28;20451;-69
2022/06/12 05:23:26;;;;;;;5.60;4.97;;;19.20;97.20;;;;;;1721110;28;20288;-70
2022/06/12 05:24:18;;;;;;;7.53;6.20;;;19.20;97.20;;;;;;1721097;28;20205;-69
2022/06/12 05:25:10;;;;;;;6.97;6.28;;;19.20;97.20;;;;;;1721037;28;20197;-70
2022/06/12 05:26:01;;;;;;;6.95;6.30;;;19.30;97.20;;;;;;1720951;28;20204;-69
2022/06/12 05:26:54;;;;;;;7.30;6.40;;;19.30;97.20;;;;;;1720828;28;20236;-70
2022/06/12 05:27:47;;;;;;;7.07;6.40;;;19.30;97.20;;;;;;1720963;28;20228;-70
2022/06/12 05:28:39;;;;;;;6.43;5.75;;;19.30;97.20;;;;;;1721050;28;20275;-69
2022/06/12 05:29:33;;;;;;;6.43;5.85;;;19.40;97.20;;;;;;1721131;28;20212;-69
2022/06/12 05:30:28;;;;;;;6.82;6.18;;;19.40;97.20;;;;;;1719394;28;20668;-69
2022/06/12 05:31:20;;;;;;;7.30;6.55;;;19.40;97.20;;;;;;1715344;28;20212;-69
2022/06/12 05:32:14;;;;;;;8.00;7.20;;;19.40;97.20;;;;;;1714354;28;20253;-70
2022/06/12 05:33:05;;;;;;;5.63;5.13;;;19.40;97.20;;;;;;1714179;28;20226;-69
2022/06/12 05:33:57;;;;;;;5.85;5.35;;;19.50;97.20;;;;;;1714354;28;20661;-69
2022/06/12 05:34:48;;;;;;;5.38;4.88;;;19.50;97.20;;;;;;1714332;28;20198;-70
2022/06/12 05:35:41;;;;;;;5.30;4.80;;;19.50;97.20;;;;;;1714285;28;20305;-70
2022/06/12 05:36:32;;;;;;;5.35;4.90;;;19.50;97.20;;;;;;1713997;28;20209;-70
2022/06/12 05:37:23;;;;;;;5.10;4.67;;;19.50;97.20;;;;;;1714343;28;20697;-69
2022/06/12 05:38:14;;;;;;;6.60;5.40;;;19.50;97.20;;;;;;1714349;28;20945;-69
2022/06/12 05:39:06;;;;;;;5.80;4.60;;;19.50;97.20;;;;;;1714276;28;20603;-70
2022/06/12 05:39:57;;;;;;;4.70;4.30;;;19.50;97.20;;;;;;1714304;28;20209;-69
2022/06/12 05:40:48;;;;;;;4.57;4.20;;;19.50;97.20;;;;;;1714250;28;20284;-70
2022/06/12 05:41:40;;;;;;;5.85;5.25;;;19.50;97.20;;;;;;1714314;28;20213;-70
2022/06/12 05:42:32;;;;;;;4.80;4.45;;;19.60;97.20;;;;;;1714217;28;20202;-70
2022/06/12 05:43:22;;;;;;;5.15;4.70;;;19.60;97.20;;;;;;1714199;28;20198;-70
2022/06/12 05:44:15;;;;;;;5.53;5.03;;;19.60;97.20;;;;;;1714242;28;20297;-70
2022/06/12 05:45:10;;;;;;;5.05;4.55;;;19.60;97.20;;;;;;1714219;28;20673;-70
2022/06/12 05:46:02;;;;;;;6.03;4.72;;;19.60;97.20;;;;;;1714167;28;20788;-69
2022/06/12 05:46:54;;;;;;;6.13;5.10;;;19.60;97.20;;;;;;1714128;28;20213;-69
2022/06/12 05:47:48;;;;;;;5.20;4.72;;;19.70;97.20;;;;;;1719727;28;20589;-69
2022/06/12 05:48:40;;;;;;;5.60;4.70;;;19.70;97.20;;;;;;1720922;28;20220;-70
2022/06/12 05:49:32;;;;;;;5.53;5.03;;;19.80;97.20;;;;;;1720868;28;20255;-69
2022/06/12 05:50:26;;;;;;;4.90;4.43;;;19.80;97.20;;;;;;1720887;28;20205;-69
2022/06/12 05:51:20;;;;;;;5.28;4.78;;;19.80;97.20;;;;;;1720862;28;20263;-70
2022/06/12 05:52:11;;;;;;;4.95;4.55;;;19.80;97.20;;;;;;1720845;28;20572;-70
2022/06/12 05:53:03;;;;;;;6.20;4.97;;;19.80;97.20;;;;;;1720808;28;20656;-69
2022/06/12 05:53:54;;;;;;;4.90;4.40;;;19.90;97.20;;;;;;1720937;28;20244;-70
2022/06/12 05:54:46;;;;;;;5.13;4.60;;;19.90;97.20;;;;;;1720897;28;20316;-70
2022/06/12 05:55:36;;;;;;;4.80;4.40;;;19.90;97.20;;;;;;1720934;28;20592;-70
2022/06/12 05:56:30;;;;;;;5.40;5.00;;;19.90;97.20;;;;;;1720808;28;20614;-69
2022/06/12 05:57:20;;;;;;;5.43;4.93;;;20.00;97.20;;;;;;1720597;28;20576;-70
2022/06/12 05:58:12;;;;;;;5.03;4.63;;;20.00;97.20;;;;;;1720781;28;20631;-69
2022/06/12 05:59:03;;;;;;;5.78;4.75;;;20.00;97.20;;;;;;1720800;28;20460;-69
2022/06/12 05:59:55;;;;;;;6.20;5.23;;;20.10;97.20;;;;;;1720928;28;20289;-70
2022/06/12 06:00:47;;;;;;;4.60;4.15;;;20.10;97.20;;;;;;1720785;28;20209;-69
2022/06/12 06:01:40;;;;;;;6.43;4.60;;;20.10;97.20;;;;;;1720832;28;20296;-69
2022/06/12 06:02:34;;;;;;;4.78;4.38;;;20.10;97.20;;;;;;1720806;28;20212;-70
2022/06/12 06:03:26;;;;;;;5.90;4.40;;;20.20;97.20;;;;;;1720819;28;20672;-69
2022/06/12 06:04:17;;;;;;;5.97;4.70;;;20.20;97.20;;;;;;1716118;28;20198;-69
2022/06/12 06:05:09;;;;;;;6.97;4.43;;;20.20;97.20;;;;;;1714174;28;20288;-69
2022/06/12 06:06:01;;;;;;;5.13;4.60;;;20.20;97.20;;;;;;1714039;28;20206;-70
2022/06/12 06:06:55;;;;;;;4.77;4.37;;;20.30;97.20;;;;;;1713884;28;20193;-69
2022/06/12 06:07:46;;;;;;;7.03;5.25;;;20.30;97.20;;;;;;1714102;28;20437;-70
2022/06/12 06:08:38;;;;;;;4.95;4.45;;;20.30;97.20;;;;;;1714149;28;20229;-70
2022/06/12 06:09:29;;;;;;;4.68;4.28;;;20.30;97.20;;;;;;1714089;28;20210;-70
2022/06/12 06:10:24;;;;;;;4.35;4.00;;;20.30;97.20;;;;;;1714097;28;20213;-70
2022/06/12 06:11:15;;;;;;;4.63;4.22;;;20.40;97.20;;;;;;1714189;28;20224;-70
2022/06/12 06:12:08;;;;;;;5.05;3.97;;;20.40;97.20;;;;;;1714027;28;20209;-70
2022/06/12 06:12:59;;;;;;;4.88;4.47;;;20.40;97.20;;;;;;1714051;28;20244;-70
2022/06/12 06:13:50;;;;;;;4.63;4.23;;;20.40;97.20;;;;;;1714041;28;20206;-69
2022/06/12 06:14:41;;;;;;;5.55;4.60;;;20.50;97.20;;;;;;1714054;28;20456;-70
2022/06/12 06:15:33;;;;;;;5.00;4.60;;;20.50;97.20;;;;;;1713913;28;20224;-70
2022/06/12 06:16:24;;;;;;;4.40;3.97;;;20.50;97.20;;;;;;1713986;28;20213;-69
2022/06/12 06:17:16;;;;;;;5.50;5.10;;;20.50;97.20;;;;;;1713875;28;20291;-69
2022/06/12 06:18:09;;;;;;;4.85;4.47;;;20.50;97.20;;;;;;1713927;28;20696;-70
2022/06/12 06:19:01;;;;;;;5.00;4.40;;;20.50;97.20;;;;;;1714040;28;20205;-69
2022/06/12 06:19:52;;;;;;;5.57;5.07;;;20.60;97.20;;;;;;1714027;28;20205;-69
2022/06/12 06:20:44;;;;;;;5.38;4.88;;;20.60;97.20;;;;;;1714023;28;20669;-69
2022/06/12 06:21:36;;;;;;;5.65;4.50;;;20.60;97.20;;;;;;1720308;28;20202;-69
2022/06/12 06:22:28;;;;;;;5.10;4.70;;;20.60;97.20;;;;;;1720670;28;20660;-69
2022/06/12 06:23:19;;;;;;;6.75;4.38;;;20.70;97.20;;;;;;1720762;28;20209;-69
2022/06/12 06:24:12;;;;;;;5.20;4.80;;;20.70;97.20;;;;;;1720767;28;20209;-69
2022/06/12 06:25:03;;;;;;;4.30;3.90;;;20.70;97.20;;;;;;1720822;28;20589;-69
2022/06/12 06:25:55;;;;;;;5.93;4.72;;;20.70;97.20;;;;;;1720695;28;20656;-69
2022/06/12 06:26:46;;;;;;;4.88;4.40;;;20.80;97.20;;;;;;1720455;28;20196;-69
2022/06/12 06:27:38;;;;;;;5.90;5.30;;;20.80;97.20;;;;;;1720669;28;20288;-69
2022/06/12 06:28:28;;;;;;;4.50;4.15;;;20.80;97.20;;;;;;1720697;28;20210;-69
2022/06/12 06:29:20;;;;;;;5.20;4.70;;;20.80;97.20;;;;;;1720702;28;20284;-70
2022/06/12 06:30:13;;;;;;;4.88;4.40;;;20.80;97.20;;;;;;1720741;28;20391;-69
2022/06/12 06:31:05;;;;;;;5.93;5.10;;;20.90;97.20;;;;;;1720675;28;20207;-69
2022/06/12 06:31:55;;;;;;;7.10;4.38;;;20.90;97.20;;;;;;1720753;28;20238;-69
2022/06/12 06:32:47;;;;;;;4.40;4.00;;;20.90;97.20;;;;;;1720649;28;20296;-69
2022/06/12 06:33:39;;;;;;;5.88;5.38;;;20.90;97.20;;;;;;1720590;28;20240;-69
2022/06/12 06:34:31;;;;;;;5.70;5.20;;;20.90;97.20;;;;;;1720649;28;20288;-69
2022/06/12 06:35:23;;;;;;;6.53;5.82;;;21.00;97.20;;;;;;1720583;28;20204;-69
2022/06/12 06:36:16;;;;;;;6.10;5.53;;;21.00;97.20;;;;;;1720659;28;20671;-69
2022/06/12 06:37:09;;;;;;;5.93;5.43;;;21.00;97.20;;;;;;1720354;28;20197;-69
2022/06/12 06:38:01;;;;;;;6.10;5.60;;;21.10;97.20;;;;;;1720512;28;20196;-69
2022/06/12 06:38:54;;;;;;;6.35;5.78;;;21.10;97.20;;;;;;1714212;28;20194;-69
2022/06/12 06:39:45;;;;;;;7.32;5.80;;;21.10;97.20;;;;;;1713961;28;20276;-69
2022/06/12 06:40:37;;;;;;;7.45;5.70;;;21.10;97.20;;;;;;1714001;28;20205;-70
2022/06/12 06:41:29;;;;;;;7.38;5.65;;;21.10;97.20;;;;;;1713972;28;20206;-70
2022/06/12 06:42:20;;;;;;;6.00;5.50;;;21.20;97.20;;;;;;1713992;28;20205;-70
2022/06/12 06:43:12;;;;;;;5.70;5.20;;;21.20;97.20;;;;;;1714960;28;20205;-69
2022/06/12 06:46:24;;;;;;;6.20;5.50;;;21.30;97.20;;;;;;1713957;28;20209;-70
2022/06/12 06:47:14;;;;;;;6.40;4.97;;;21.30;97.20;;;;;;1713723;28;20208;-69
2022/06/12 06:48:07;;;;;;;5.77;5.27;;;21.30;97.20;;;;;;1713869;28;20519;-70
2022/06/12 06:49:00;;;;;;;5.47;5.05;;;21.30;97.20;;;;;;1714003;28;20208;-70
2022/06/12 06:49:52;;;;;;;6.20;5.43;;;21.30;97.20;;;;;;1713954;28;20240;-69
2022/06/12 06:50:43;;;;;;;6.00;5.53;;;21.40;97.20;;;;;;1713904;28;20209;-70
2022/06/12 06:51:36;;;;;;;5.78;5.28;;;21.40;97.20;;;;;;1714012;28;20202;-70
2022/06/12 06:52:26;;;;;;;6.15;5.55;;;21.40;97.20;;;;;;1713878;28;20220;-70
2022/06/12 06:53:18;;;;;;;6.63;6.03;;;21.40;97.20;;;;;;1713827;28;20204;-70
2022/06/12 06:54:09;;;;;;;5.90;5.40;;;21.40;97.20;;;;;;1713899;28;20206;-69
2022/06/12 06:55:01;;;;;;;5.83;5.33;;;21.50;97.20;;;;;;1713965;28;20202;-70
2022/06/12 06:55:52;;;;;;;5.82;5.32;;;21.50;97.20;;;;;;1713775;28;20226;-70
2022/06/12 06:56:45;;;;;;;5.87;5.37;;;21.50;97.20;;;;;;1713642;28;20201;-69
2022/06/12 06:57:36;;;;;;;5.50;5.10;;;21.50;97.20;;;;;;1718137;28;20453;-69
2022/06/12 06:58:31;;;;;;;7.43;5.43;;;21.50;97.20;;;;;;1720477;28;20231;-71
2022/06/12 06:59:22;;;;;;;6.22;5.50;;;21.60;97.20;;;;;;1720533;28;20983;-71
2022/06/12 07:00:17;;;;;;;6.23;5.47;;;21.60;97.20;;;;;;1719134;28;20637;-69
2022/06/12 07:01:08;;;;;;;6.07;5.50;;;21.60;97.20;;;;;;1713877;28;20209;-69
2022/06/12 07:02:00;;;;;;;5.53;5.03;;;21.60;97.20;;;;;;1713941;28;20289;-69
2022/06/12 07:02:51;;;;;;;6.00;5.00;;;21.70;97.20;;;;;;1713925;28;20201;-69
2022/06/12 07:03:43;;;;;;;5.80;5.28;;;21.70;97.20;;;;;;1713885;28;20198;-69
2022/06/12 07:04:37;;;;;;;4.90;4.50;;;21.70;97.20;;;;;;1713894;28;20695;-69
2022/06/12 07:05:30;;;;;;;5.03;4.60;;;21.70;97.20;;;;;;1713777;28;20272;-69
2022/06/12 07:06:21;;;;;;;7.95;5.07;;;21.70;97.20;;;;;;1713832;28;20202;-69
2022/06/12 07:07:13;;;;;;;5.10;4.65;;;21.70;97.20;;;;;;1713650;28;20696;-69
2022/06/12 07:08:05;;;;;;;8.32;5.28;;;21.70;97.20;;;;;;1714180;28;20206;-69
2022/06/12 07:08:57;;;;;;;5.22;4.82;;;21.80;97.20;;;;;;1715237;28;20206;-69
2022/06/12 07:09:48;;;;;;;5.35;4.60;;;21.80;97.20;;;;;;1715261;28;20202;-69
2022/06/12 07:10:40;;;;;;;5.33;4.93;;;21.80;97.20;;;;;;1715349;28;20288;-71
2022/06/12 07:11:32;;;;;;;5.95;5.35;;;21.90;97.20;;;;;;1715175;28;20689;-71
2022/06/12 07:12:24;;;;;;;5.10;4.70;;;21.90;97.20;;;;;;1715166;28;20212;-69
2022/06/12 07:13:15;;;;;;;7.55;4.95;;;21.90;97.20;;;;;;1715320;28;20572;-69
2022/06/12 07:14:07;;;;;;;6.65;5.10;;;21.90;97.20;;;;;;1715091;28;20330;-69
2022/06/12 07:14:57;;;;;;;5.75;5.20;;;21.90;97.20;;;;;;1715217;28;20206;-69
2022/06/12 07:15:50;;;;;;;6.10;4.40;;;21.90;97.20;;;;;;1715042;28;20235;-69
2022/06/12 07:16:41;;;;;;;6.30;5.15;;;22.00;97.20;;;;;;1714902;28;20210;-69
2022/06/12 07:17:33;;;;;;;5.78;5.38;;;22.00;97.20;;;;;;1715169;28;20209;-69
2022/06/12 07:18:24;;;;;;;6.20;5.40;;;22.00;97.20;;;;;;1715036;28;20206;-69
2022/06/12 07:19:15;;;;;;;5.47;4.77;;;22.00;97.20;;;;;;1715132;28;20293;-69
2022/06/12 07:20:11;;;;;;;5.60;5.15;;;22.00;97.20;;;;;;1715117;28;20212;-69
2022/06/12 07:21:03;;;;;;;8.70;5.78;;;22.10;97.20;;;;;;1715209;28;20602;-69
2022/06/12 07:21:54;;;;;;;6.15;5.70;;;22.10;97.20;;;;;;1715135;28;20201;-69
2022/06/12 07:22:46;;;;;;;6.43;4.88;;;22.10;97.20;;;;;;1715196;28;20225;-70
2022/06/12 07:23:38;;;;;;;7.82;5.10;;;22.20;97.20;;;;;;1715227;28;20584;-69
2022/06/12 07:24:30;;;;;;;5.85;5.35;;;22.20;97.20;;;;;;1715066;28;20202;-69
2022/06/12 07:25:21;;;;;;;6.05;5.25;;;22.20;97.20;;;;;;1715062;28;20420;-69
2022/06/12 07:26:19;;;;;;;5.65;5.13;;;22.20;97.20;;;;;;1715034;28;20284;-69
2022/06/12 07:27:10;;;;;;;6.90;5.20;;;22.20;97.20;;;;;;1714871;28;20202;-69
2022/06/12 07:28:02;;;;;;;6.30;5.37;;;22.30;97.20;;;;;;1715134;28;20229;-69
2022/06/12 07:28:52;;;;;;;5.32;4.82;;;22.30;97.20;;;;;;1715195;28;20662;-69
2022/06/12 07:29:44;;;;;;;5.67;5.17;;;22.30;97.20;;;;;;1715035;28;20752;-69
2022/06/12 07:30:36;;;;;;;6.40;5.22;;;22.30;97.20;;;;;;1715137;28;20210;-69
2022/06/12 07:31:28;;;;;;;5.97;5.00;;;22.40;97.20;;;;;;1720152;28;20205;-69
2022/06/12 07:32:19;;;;;;;5.75;5.28;;;22.40;97.20;;;;;;1721799;28;20209;-71
2022/06/12 07:33:11;;;;;;;5.28;4.75;;;22.40;97.20;;;;;;1721712;28;20735;-69
2022/06/12 07:34:03;;;;;;;5.50;5.10;;;22.50;97.20;;;;;;1721728;28;20743;-69
2022/06/12 07:34:55;;;;;;;6.03;5.25;;;22.50;97.20;;;;;;1721778;28;20664;-69
2022/06/12 07:35:48;;;;;;;7.55;5.20;;;22.50;97.20;;;;;;1721741;28;20703;-69
2022/06/12 07:36:44;;;;;;;5.93;5.07;;;22.50;97.20;;;;;;1721441;28;20613;-69
2022/06/12 07:37:36;;;;;;;5.35;4.95;;;22.60;97.20;;;;;;1721780;28;20205;-69
2022/06/12 07:38:29;;;;;;;5.68;5.20;;;22.60;97.20;;;;;;1721668;28;20419;-69
2022/06/12 07:39:23;;;;;;;5.88;4.95;;;22.60;97.20;;;;;;1721736;28;20335;-69
2022/06/12 07:40:20;;;;;;;7.45;5.88;;;22.70;97.20;;;;;;1721760;28;20719;-70
2022/06/12 07:41:12;;;;;;;5.50;5.00;;;22.70;97.20;;;;;;1721756;28;20201;-69
2022/06/12 07:42:05;;;;;;;5.25;4.85;;;22.70;97.20;;;;;;1721632;28;20197;-69
2022/06/12 07:42:55;;;;;;;5.60;5.10;;;22.80;97.20;;;;;;1721819;28;20204;-69
2022/06/12 07:43:48;;;;;;;6.20;4.93;;;22.80;97.20;;;;;;1721754;28;20284;-69
2022/06/12 07:44:40;;;;;;;6.10;5.30;;;22.80;97.20;;;;;;1721726;28;20198;-69
2022/06/12 07:45:31;;;;;;;5.45;4.97;;;22.80;97.20;;;;;;1721373;28;20239;-70
2022/06/12 07:46:23;;;;;;;5.73;5.20;;;22.80;97.20;;;;;;1721371;28;20235;-69
2022/06/12 07:47:14;;;;;;;6.00;5.40;;;22.80;97.20;;;;;;1721572;28;20209;-69
2022/06/12 07:48:06;;;;;;;5.27;4.87;;;22.90;97.20;;;;;;1721624;28;20229;-70
2022/06/12 07:48:57;;;;;;;5.75;5.28;;;22.90;97.20;;;;;;1721826;28;20201;-69
2022/06/12 07:49:49;;;;;;;6.13;4.78;;;22.90;97.20;;;;;;1721709;28;20664;-69
2022/06/12 07:50:42;;;;;;;5.15;4.75;;;22.90;97.20;;;;;;1721708;28;20201;-69
2022/06/12 07:51:35;;;;;;;6.40;5.75;;;22.90;97.20;;;;;;1721746;28;20708;-70
2022/06/12 07:52:27;;;;;;;5.10;4.70;;;23.00;97.20;;;;;;1721939;28;20205;-69
2022/06/12 07:53:20;;;;;;;4.90;4.50;;;23.00;97.20;;;;;;1721699;28;20284;-70
2022/06/12 07:54:11;;;;;;;4.57;4.28;;;23.00;97.20;;;;;;1721603;28;20295;-69
2022/06/12 07:55:04;;;;;;;4.82;4.43;;;23.00;97.20;;;;;;1721722;28;20205;-69
2022/06/12 07:55:55;;;;;;;6.47;4.40;;;23.00;97.20;;;;;;1721585;28;20229;-69
2022/06/12 07:56:47;;;;;;;5.67;4.57;;;23.10;97.20;;;;;;1721409;28;20291;-69
2022/06/12 07:57:39;;;;;;;7.72;5.13;;;23.10;97.20;;;;;;1721564;28;20212;-69
2022/06/12 07:58:31;;;;;;;5.13;4.75;;;23.10;97.20;;;;;;1721796;28;20259;-69
2022/06/12 07:59:23;;;;;;;4.55;4.15;;;23.20;97.20;;;;;;1721690;28;20210;-69
2022/06/12 08:00:18;;;;;;;5.68;5.10;;;23.20;97.20;;;;;;1721699;28;20237;-69
2022/06/12 08:01:11;;;;;;;5.30;4.63;;;23.20;97.20;;;;;;1721716;28;20209;-69
2022/06/12 08:02:04;;;;;;;5.20;4.70;;;23.20;97.20;;;;;;1721719;28;20260;-69
2022/06/12 08:02:55;;;;;;;4.78;4.35;;;23.30;97.20;;;;;;1720055;28;20198;-69
2022/06/12 08:03:47;;;;;;;5.07;4.68;;;23.30;97.20;;;;;;1719164;28;20200;-69
2022/06/12 08:04:38;;;;;;;5.65;4.78;;;23.30;97.20;;;;;;1715184;28;20703;-69
2022/06/12 08:05:30;;;;;;;5.05;4.32;;;23.30;97.20;;;;;;1714979;28;20206;-69
2022/06/12 08:06:22;;;;;;;4.85;4.40;;;23.40;97.20;;;;;;1714971;28;20252;-70
2022/06/12 08:07:16;;;;;;;6.38;4.55;;;23.40;97.20;;;;;;1714834;28;20202;-70
2022/06/12 08:08:07;;;;;;;4.78;4.30;;;23.40;97.20;;;;;;1715107;28;20583;-69
2022/06/12 08:08:59;;;;;;;5.32;4.20;;;23.50;97.20;;;;;;1715054;28;20206;-69
2022/06/12 08:09:50;;;;;;;4.50;4.15;;;23.50;97.20;;;;;;1715093;28;20306;-69
2022/06/12 08:10:42;;;;;;;5.33;4.40;;;23.50;97.20;;;;;;1714989;28;20304;-69
2022/06/12 08:11:33;;;;;;;4.78;4.03;;;23.50;97.20;;;;;;1714949;28;20453;-70
2022/06/12 08:12:25;;;;;;;5.50;4.65;;;23.50;97.20;;;;;;1715072;28;20265;-69
2022/06/12 08:13:16;;;;;;;4.40;4.00;;;23.60;97.20;;;;;;1715116;28;20572;-70
2022/06/12 08:14:08;;;;;;;4.82;4.40;;;23.60;97.20;;;;;;1715063;28;20604;-70
2022/06/12 08:14:58;;;;;;;4.45;4.05;;;23.60;97.20;;;;;;1715021;28;20225;-70
2022/06/12 08:15:51;;;;;;;5.93;4.40;;;23.60;97.20;;;;;;1714827;28;20308;-69
2022/06/12 08:16:42;;;;;;;4.07;3.75;;;23.70;97.20;;;;;;1714804;28;20256;-70
2022/06/12 08:17:34;;;;;;;4.40;4.00;;;23.70;97.20;;;;;;1715197;28;20193;-69
2022/06/12 08:18:25;;;;;;;5.35;3.95;;;23.70;97.20;;;;;;1715023;28;20688;-69
2022/06/12 08:20:30;;;;;;;4.07;3.67;;;23.80;97.20;;;;;;1714717;28;20209;-69
2022/06/12 08:21:21;;;;;;;5.97;4.50;;;23.80;97.20;;;;;;1715122;28;20217;-69
2022/06/12 08:22:13;;;;;;;8.13;4.05;;;23.80;97.20;;;;;;1715054;28;20208;-69
2022/06/12 08:23:26;;;;;;;4.68;4.20;;;23.90;97.20;;;;;;1714984;28;20210;-70
2022/06/12 08:24:17;;;;;;;4.03;3.50;;;23.90;97.20;;;;;;1715113;28;20202;-70
2022/06/12 08:25:09;;;;;;;4.13;3.83;;;23.90;97.20;;;;;;1715026;28;20657;-70
2022/06/12 08:26:04;;;;;;;5.38;3.90;;;23.90;97.20;;;;;;1714826;28;20594;-70
2022/06/12 08:26:55;;;;;;;4.18;3.78;;;24.00;97.20;;;;;;1714777;28;20202;-70
2022/06/12 08:27:47;;;;;;;3.70;3.40;;;24.00;97.20;;;;;;1714911;28;20653;-70
2022/06/12 08:28:41;;;;;;;4.63;3.95;;;24.00;97.20;;;;;;1716448;28;20217;-70
2022/06/12 08:29:32;;;;;;;4.45;3.65;;;24.10;97.20;;;;;;1716473;28;20208;-69
2022/06/12 08:30:23;;;;;;;4.30;3.90;;;24.10;97.20;;;;;;1716934;28;20201;-70
2022/06/12 08:31:18;;;;;;;5.67;3.83;;;24.10;97.20;;;;;;1716716;28;20677;-69
2022/06/12 08:32:14;;;;;;;6.15;3.63;;;24.10;97.20;;;;;;1717036;28;20449;-69
2022/06/12 08:33:06;;;;;;;3.70;3.40;;;24.20;97.20;;;;;;1716835;28;20198;-70
2022/06/12 08:34:00;;;;;;;4.55;3.50;;;24.20;97.20;;;;;;1716934;28;20198;-70
2022/06/12 08:34:56;;;;;;;4.95;4.10;;;24.20;97.20;;;;;;1716887;28;20202;-69
2022/06/12 08:35:47;;;;;;;3.67;3.33;;;24.20;97.20;;;;;;1715286;28;20222;-70
2022/06/12 08:36:40;;;;;;;4.00;3.70;;;24.30;97.20;;;;;;1714797;28;20201;-70
2022/06/12 08:37:35;;;;;;;3.85;3.22;;;24.30;97.20;;;;;;1714888;28;20528;-69
2022/06/12 08:38:29;;;;;;;4.30;3.90;;;24.30;97.20;;;;;;1714757;28;20202;-70
2022/06/12 08:39:20;;;;;;;4.25;3.83;;;24.30;97.20;;;;;;1714764;28;20209;-70
2022/06/12 08:40:19;;;;;;;4.75;3.50;;;24.40;97.20;;;;;;1714672;28;20209;-69
2022/06/12 08:41:18;;;;;;;4.47;4.07;;;24.40;97.20;;;;;;1714803;28;20205;-69
2022/06/12 08:42:13;;;;;;;9.55;8.82;;;24.40;97.20;;;;;;1714859;28;20318;-69
2022/06/12 08:43:14;;;;;;;5.65;5.15;;;24.50;97.20;;;;;;1714825;28;20270;-69
2022/06/12 08:44:14;;;;;;;5.13;4.72;;;24.50;97.20;;;;;;1714895;28;20198;-71
2022/06/12 08:45:14;;;;;;;5.50;4.30;;;24.50;97.20;;;;;;1714781;28;20280;-69
2022/06/12 08:46:12;;;;;;;3.90;3.58;;;24.60;97.20;;;;;;1714768;28;20682;-70
2022/06/12 08:47:09;;;;;;;3.20;3.00;;;24.60;97.20;;;;;;1714409;28;20558;-70
2022/06/12 08:48:05;;;;;;;3.45;3.15;;;24.60;97.20;;;;;;1714731;28;20202;-70
2022/06/12 08:49:01;;;;;;;4.65;3.25;;;24.70;97.20;;;;;;1714806;28;20202;-70
2022/06/12 08:49:57;;;;;;;5.43;4.93;;;24.70;97.20;;;;;;1714871;28;20387;-70
2022/06/12 08:50:55;;;;;;;5.25;4.75;;;24.70;97.20;;;;;;1714815;28;20225;-69
2022/06/12 08:51:51;;;;;;;6.25;5.75;;;24.80;97.20;;;;;;1714783;28;20202;-69
2022/06/12 08:52:50;;;;;;;5.93;5.30;;;24.80;97.20;;;;;;1714692;28;20616;-69
2022/06/12 08:53:50;;;;;;;5.70;5.30;;;24.80;97.20;;;;;;1716510;28;20669;-70
2022/06/12 08:54:45;;;;;;;5.78;5.28;;;24.90;97.20;;;;;;1721194;28;20217;-69
2022/06/12 08:55:43;;;;;;;3.28;3.08;;;24.90;97.20;;;;;;1721329;28;20232;-69
2022/06/12 08:56:41;;;;;;;3.83;3.53;;;24.90;97.20;;;;;;1721040;28;20201;-69
2022/06/12 08:57:39;;;;;;;5.05;3.70;;;24.90;97.20;;;;;;1721324;28;20205;-69
2022/06/12 08:58:37;;;;;;;3.80;3.40;;;24.90;97.20;;;;;;1721299;28;20205;-69
2022/06/12 08:59:34;;;;;;;3.38;3.10;;;25.00;97.20;;;;;;1721260;28;20212;-69
2022/06/12 09:00:31;;;;;;;3.85;3.55;;;25.00;97.20;;;;;;1721369;28;20204;-69
2022/06/12 09:01:22;;;;;;;4.38;3.70;;;25.00;97.20;;;;;;1721279;28;20660;-70
2022/06/12 09:02:21;;;;;;;4.93;3.13;;;25.00;97.20;;;;;;1721225;28;20205;-69
2022/06/12 09:03:14;;;;;;;3.53;3.20;;;25.00;97.20;;;;;;1721332;28;20228;-69
2022/06/12 09:04:06;;;;;;;4.43;3.30;;;25.00;97.20;;;;;;1721294;28;20278;-69
2022/06/12 09:04:58;;;;;;;4.90;3.58;;;25.00;97.20;;;;;;1721387;28;20209;-69
2022/06/12 09:05:54;;;;;;;6.18;4.18;;;25.00;97.20;;;;;;1721069;28;20305;-70
2022/06/12 09:06:48;;;;;;;4.70;3.38;;;25.10;97.20;;;;;;1720929;28;20216;-70
2022/06/12 09:07:48;;;;;;;3.72;3.42;;;25.10;97.20;;;;;;1721165;28;20204;-69
2022/06/12 09:08:46;;;;;;;3.20;2.95;;;25.10;97.20;;;;;;1721502;28;20258;-69
2022/06/12 09:09:43;;;;;;;4.38;3.88;;;25.10;97.20;;;;;;1721265;28;20205;-69
2022/06/12 09:10:39;;;;;;;4.25;3.90;;;25.10;97.20;;;;;;1719606;28;20201;-69
2022/06/12 09:11:35;;;;;;;5.07;3.05;;;25.20;97.20;;;;;;1721167;28;20259;-69
2022/06/12 09:12:30;;;;;;;4.25;3.60;;;25.20;97.20;;;;;;1721135;28;20205;-69
2022/06/12 09:13:29;;;;;;;4.88;3.50;;;25.20;97.20;;;;;;1721175;28;20613;-69
2022/06/12 09:14:35;;;;;;;3.75;3.45;;;25.20;97.20;;;;;;1721129;28;20212;-70
2022/06/12 09:15:39;;;;;;;4.00;3.50;;;25.20;97.20;;;;;;1721038;28;20212;-69
2022/06/12 09:16:35;;;;;;;4.22;3.78;;;25.20;97.20;;;;;;1721096;28;20205;-69
2022/06/12 09:17:36;;;;;;;5.28;3.88;;;25.20;97.20;;;;;;1721160;28;20212;-69
2022/06/12 09:18:39;;;;;;;4.25;3.20;;;25.20;97.20;;;;;;1721121;28;20201;-69
2022/06/12 09:19:38;;;;;;;4.93;3.90;;;25.20;97.20;;;;;;1721219;28;20668;-69
2022/06/12 09:20:35;;;;;;;7.50;3.67;;;25.20;97.20;;;;;;1721139;28;20214;-69
2022/06/12 09:21:34;;;;;;;3.83;3.42;;;25.30;97.20;;;;;;1721042;28;20216;-69
2022/06/12 09:22:34;;;;;;;3.78;3.47;;;25.30;97.20;;;;;;1721136;28;20673;-69
2022/06/12 09:23:33;;;;;;;3.80;3.45;;;25.30;97.20;;;;;;1721052;28;20243;-69
2022/06/12 09:24:38;;;;;;;4.45;4.05;;;25.30;97.20;;;;;;1721046;28;20206;-69
2022/06/12 09:25:39;;;;;;;4.85;3.70;;;25.40;97.20;;;;;;1721000;28;20672;-69
2022/06/12 09:26:41;;;;;;;5.07;3.78;;;25.40;97.20;;;;;;1721007;28;20206;-69
2022/06/12 09:27:42;;;;;;;4.30;3.90;;;25.40;97.20;;;;;;1717839;28;20567;-69
2022/06/12 09:28:44;;;;;;;4.03;3.58;;;25.50;97.20;;;;;;1714439;28;20201;-69
2022/06/12 09:29:43;;;;;;;5.50;3.25;;;25.50;97.20;;;;;;1714485;28;20297;-69
2022/06/12 09:30:41;;;;;;;4.15;3.30;;;25.50;97.20;;;;;;1714313;28;20209;-69
2022/06/12 09:31:40;;;;;;;3.90;3.50;;;25.50;97.20;;;;;;1714206;28;20214;-69
2022/06/12 09:32:45;;;;;;;4.20;3.80;;;25.60;97.20;;;;;;1714399;28;20206;-69
2022/06/12 09:33:45;;;;;;;4.07;3.72;;;25.60;97.20;;;;;;1714361;28;20210;-69
2022/06/12 09:34:45;;;;;;;5.70;3.90;;;25.60;97.20;;;;;;1714416;28;20209;-69
2022/06/12 09:35:47;;;;;;;4.00;3.60;;;25.60;97.20;;;;;;1714238;28;20221;-70
2022/06/12 09:36:53;;;;;;;4.75;4.00;;;25.70;97.20;;;;;;1714247;28;20213;-69
2022/06/12 09:39:36;;;;;;;4.57;4.07;;;25.70;97.20;;;;;;1700229;29;20199;-71
2022/06/12 09:40:34;;;;;;;4.05;3.65;;;25.80;97.20;;;;;;1710106;28;20284;-71
2022/06/12 09:41:33;;;;;;;3.88;3.45;;;25.80;97.20;;;;;;1714327;28;20288;-70
2022/06/12 09:42:30;;;;;;;4.03;3.67;;;25.80;97.20;;;;;;1714329;28;20212;-70
2022/06/12 09:43:32;;;;;;;3.40;3.10;;;25.80;97.20;;;;;;1714331;28;20205;-69
2022/06/12 09:44:32;;;;;;;4.38;4.00;;;25.80;97.20;;;;;;1714263;28;20214;-69